sensor_id;sensor_type;location;lat;lon;timestamp;P1;durP1;ratioP1;P2;durP2;ratioP2
40907;SDS011;51055;59.436;24.778;2023-02-28T00:01:27;4.13;;;1.88;;
40907;SDS011;51055;59.436;24.778;2023-02-28T00:03:56;6.53;;;1.15;;
40907;SDS011;51055;59.436;24.778;2023-02-28T00:06:25;2.28;;;0.63;;
40907;SDS011;51055;59.436;24.778;2023-02-28T00:11:21;2.58;;;0.90;;
40907;SDS011;51055;59.436;24.778;2023-02-28T00:13:49;2.20;;;0.70;;
40907;SDS011;51055;59.436;24.778;2023-02-28T00:16:20;2.78;;;0.77;;
40907;SDS011;51055;59.436;24.778;2023-02-28T00:18:49;3.63;;;0.90;;
40907;SDS011;51055;59.436;24.778;2023-02-28T00:21:18;1.65;;;0.73;;
40907;SDS011;51055;59.436;24.778;2023-02-28T00:26:15;2.00;;;0.80;;
40907;SDS011;51055;59.436;24.778;2023-02-28T00:28:43;2.53;;;0.82;;
40907;SDS011;51055;59.436;24.778;2023-02-28T00:31:11;2.85;;;0.82;;
40907;SDS011;51055;59.436;24.778;2023-02-28T00:33:39;1.48;;;0.70;;
40907;SDS011;51055;59.436;24.778;2023-02-28T00:36:07;4.57;;;0.80;;
40907;SDS011;51055;59.436;24.778;2023-02-28T00:38:37;3.45;;;0.90;;
40907;SDS011;51055;59.436;24.778;2023-02-28T00:41:06;2.55;;;0.90;;
40907;SDS011;51055;59.436;24.778;2023-02-28T00:43:35;3.08;;;0.88;;
40907;SDS011;51055;59.436;24.778;2023-02-28T00:46:04;4.07;;;0.98;;
40907;SDS011;51055;59.436;24.778;2023-02-28T00:48:33;4.45;;;0.80;;
40907;SDS011;51055;59.436;24.778;2023-02-28T00:51:01;3.08;;;0.90;;
40907;SDS011;51055;59.436;24.778;2023-02-28T00:53:29;1.83;;;0.68;;
40907;SDS011;51055;59.436;24.778;2023-02-28T00:55:57;3.10;;;0.88;;
40907;SDS011;51055;59.436;24.778;2023-02-28T00:58:25;3.92;;;1.15;;
40907;SDS011;51055;59.436;24.778;2023-02-28T01:00:53;5.03;;;0.85;;
40907;SDS011;51055;59.436;24.778;2023-02-28T01:03:21;4.70;;;0.90;;
40907;SDS011;51055;59.436;24.778;2023-02-28T01:05:50;3.17;;;0.85;;
40907;SDS011;51055;59.436;24.778;2023-02-28T01:08:20;3.88;;;0.80;;
40907;SDS011;51055;59.436;24.778;2023-02-28T01:10:48;3.72;;;0.90;;
40907;SDS011;51055;59.436;24.778;2023-02-28T01:13:15;2.83;;;0.90;;
40907;SDS011;51055;59.436;24.778;2023-02-28T01:15:45;2.85;;;0.73;;
40907;SDS011;51055;59.436;24.778;2023-02-28T01:18:18;3.22;;;0.85;;
40907;SDS011;51055;59.436;24.778;2023-02-28T01:20:47;3.60;;;0.80;;
40907;SDS011;51055;59.436;24.778;2023-02-28T01:23:16;3.15;;;0.85;;
40907;SDS011;51055;59.436;24.778;2023-02-28T01:25:43;3.50;;;0.80;;
40907;SDS011;51055;59.436;24.778;2023-02-28T01:28:11;5.13;;;1.05;;
40907;SDS011;51055;59.436;24.778;2023-02-28T01:30:39;2.50;;;0.90;;
40907;SDS011;51055;59.436;24.778;2023-02-28T01:33:06;5.05;;;0.95;;
40907;SDS011;51055;59.436;24.778;2023-02-28T01:35:35;2.15;;;0.80;;
40907;SDS011;51055;59.436;24.778;2023-02-28T01:38:03;4.53;;;0.95;;
40907;SDS011;51055;59.436;24.778;2023-02-28T01:40:47;4.90;;;0.90;;
40907;SDS011;51055;59.436;24.778;2023-02-28T01:43:22;3.30;;;0.73;;
40907;SDS011;51055;59.436;24.778;2023-02-28T01:45:52;4.38;;;0.90;;
40907;SDS011;51055;59.436;24.778;2023-02-28T01:48:21;3.60;;;0.80;;
40907;SDS011;51055;59.436;24.778;2023-02-28T01:50:59;2.85;;;0.85;;
40907;SDS011;51055;59.436;24.778;2023-02-28T01:53:35;4.00;;;0.90;;
40907;SDS011;51055;59.436;24.778;2023-02-28T01:56:06;2.35;;;0.73;;
40907;SDS011;51055;59.436;24.778;2023-02-28T01:58:36;2.20;;;0.77;;
40907;SDS011;51055;59.436;24.778;2023-02-28T02:01:04;1.00;;;0.57;;
40907;SDS011;51055;59.436;24.778;2023-02-28T02:03:32;1.13;;;0.60;;
40907;SDS011;51055;59.436;24.778;2023-02-28T02:05:59;4.57;;;0.98;;
40907;SDS011;51055;59.436;24.778;2023-02-28T02:08:28;4.55;;;0.88;;
40907;SDS011;51055;59.436;24.778;2023-02-28T02:10:59;3.22;;;0.90;;
40907;SDS011;51055;59.436;24.778;2023-02-28T02:19:23;4.47;;;0.85;;
40907;SDS011;51055;59.436;24.778;2023-02-28T02:24:47;2.17;;;0.70;;
40907;SDS011;51055;59.436;24.778;2023-02-28T02:44:12;2.55;;;0.82;;
40907;SDS011;51055;59.436;24.778;2023-02-28T02:46:48;1.35;;;0.52;;
40907;SDS011;51055;59.436;24.778;2023-02-28T02:49:25;0.52;;;0.40;;
40907;SDS011;51055;59.436;24.778;2023-02-28T02:52:00;3.85;;;0.70;;
40907;SDS011;51055;59.436;24.778;2023-02-28T02:54:32;3.60;;;0.82;;
40907;SDS011;51055;59.436;24.778;2023-02-28T02:57:09;1.45;;;0.68;;
40907;SDS011;51055;59.436;24.778;2023-02-28T02:59:43;3.55;;;0.80;;
40907;SDS011;51055;59.436;24.778;2023-02-28T03:02:12;3.97;;;0.63;;
40907;SDS011;51055;59.436;24.778;2023-02-28T03:04:51;2.45;;;0.60;;
40907;SDS011;51055;59.436;24.778;2023-02-28T03:07:21;1.38;;;0.70;;
40907;SDS011;51055;59.436;24.778;2023-02-28T03:09:52;3.65;;;0.60;;
40907;SDS011;51055;59.436;24.778;2023-02-28T03:12:23;1.30;;;0.57;;
40907;SDS011;51055;59.436;24.778;2023-02-28T03:15:11;3.08;;;0.85;;
40907;SDS011;51055;59.436;24.778;2023-02-28T03:18:08;2.28;;;0.70;;
40907;SDS011;51055;59.436;24.778;2023-02-28T03:23:33;2.50;;;0.73;;
40907;SDS011;51055;59.436;24.778;2023-02-28T03:26:26;1.50;;;0.77;;
40907;SDS011;51055;59.436;24.778;2023-02-28T03:31:26;2.67;;;0.68;;
40907;SDS011;51055;59.436;24.778;2023-02-28T03:34:45;3.25;;;0.70;;
40907;SDS011;51055;59.436;24.778;2023-02-28T03:36:55;5.55;;;1.02;;
40907;SDS011;51055;59.436;24.778;2023-02-28T03:39:28;3.58;;;0.75;;
40907;SDS011;51055;59.436;24.778;2023-02-28T03:42:10;4.18;;;1.10;;
40907;SDS011;51055;59.436;24.778;2023-02-28T03:44:45;2.17;;;0.70;;
40907;SDS011;51055;59.436;24.778;2023-02-28T03:47:25;0.80;;;0.50;;
40907;SDS011;51055;59.436;24.778;2023-02-28T03:52:28;2.97;;;0.80;;
40907;SDS011;51055;59.436;24.778;2023-02-28T03:55:02;4.50;;;1.00;;
40907;SDS011;51055;59.436;24.778;2023-02-28T04:00:34;2.30;;;0.85;;
40907;SDS011;51055;59.436;24.778;2023-02-28T04:03:05;2.15;;;0.70;;
40907;SDS011;51055;59.436;24.778;2023-02-28T04:05:34;1.77;;;0.70;;
40907;SDS011;51055;59.436;24.778;2023-02-28T04:08:23;4.45;;;0.90;;
40907;SDS011;51055;59.436;24.778;2023-02-28T04:10:54;3.15;;;1.00;;
40907;SDS011;51055;59.436;24.778;2023-02-28T04:13:27;1.67;;;0.63;;
40907;SDS011;51055;59.436;24.778;2023-02-28T04:15:55;3.90;;;0.93;;
40907;SDS011;51055;59.436;24.778;2023-02-28T04:18:23;1.75;;;0.70;;
40907;SDS011;51055;59.436;24.778;2023-02-28T04:20:50;3.10;;;0.70;;
40907;SDS011;51055;59.436;24.778;2023-02-28T04:23:18;2.17;;;0.80;;
40907;SDS011;51055;59.436;24.778;2023-02-28T04:25:46;2.85;;;0.68;;
40907;SDS011;51055;59.436;24.778;2023-02-28T04:28:13;1.73;;;0.70;;
40907;SDS011;51055;59.436;24.778;2023-02-28T04:30:41;5.53;;;1.48;;
40907;SDS011;51055;59.436;24.778;2023-02-28T04:33:09;2.72;;;0.60;;
40907;SDS011;51055;59.436;24.778;2023-02-28T04:35:37;2.50;;;0.80;;
40907;SDS011;51055;59.436;24.778;2023-02-28T04:38:05;1.13;;;0.70;;
40907;SDS011;51055;59.436;24.778;2023-02-28T04:40:32;4.13;;;0.70;;
40907;SDS011;51055;59.436;24.778;2023-02-28T04:43:00;2.13;;;0.70;;
40907;SDS011;51055;59.436;24.778;2023-02-28T04:45:28;2.80;;;1.10;;
40907;SDS011;51055;59.436;24.778;2023-02-28T04:47:59;4.07;;;1.00;;
40907;SDS011;51055;59.436;24.778;2023-02-28T04:50:27;1.67;;;0.70;;
40907;SDS011;51055;59.436;24.778;2023-02-28T04:52:54;1.58;;;0.57;;
40907;SDS011;51055;59.436;24.778;2023-02-28T04:55:22;1.92;;;0.63;;
40907;SDS011;51055;59.436;24.778;2023-02-28T04:57:49;4.20;;;0.80;;
40907;SDS011;51055;59.436;24.778;2023-02-28T05:00:17;3.70;;;0.90;;
40907;SDS011;51055;59.436;24.778;2023-02-28T05:02:46;2.33;;;0.77;;
40907;SDS011;51055;59.436;24.778;2023-02-28T05:05:13;3.28;;;1.00;;
40907;SDS011;51055;59.436;24.778;2023-02-28T05:07:45;2.03;;;0.80;;
40907;SDS011;51055;59.436;24.778;2023-02-28T05:10:13;3.50;;;0.80;;
40907;SDS011;51055;59.436;24.778;2023-02-28T05:12:40;5.45;;;0.95;;
40907;SDS011;51055;59.436;24.778;2023-02-28T05:15:09;3.72;;;0.93;;
40907;SDS011;51055;59.436;24.778;2023-02-28T05:17:41;1.63;;;0.90;;
40907;SDS011;51055;59.436;24.778;2023-02-28T05:20:09;4.97;;;0.98;;
40907;SDS011;51055;59.436;24.778;2023-02-28T05:22:44;3.15;;;1.00;;
40907;SDS011;51055;59.436;24.778;2023-02-28T05:25:18;4.03;;;0.98;;
40907;SDS011;51055;59.436;24.778;2023-02-28T05:27:46;3.38;;;0.82;;
40907;SDS011;51055;59.436;24.778;2023-02-28T05:30:14;3.45;;;1.00;;
40907;SDS011;51055;59.436;24.778;2023-02-28T05:32:42;1.87;;;0.80;;
40907;SDS011;51055;59.436;24.778;2023-02-28T05:35:10;2.60;;;1.02;;
40907;SDS011;51055;59.436;24.778;2023-02-28T05:37:39;3.83;;;0.70;;
40907;SDS011;51055;59.436;24.778;2023-02-28T05:40:07;3.20;;;0.70;;
40907;SDS011;51055;59.436;24.778;2023-02-28T05:42:38;3.33;;;0.98;;
40907;SDS011;51055;59.436;24.778;2023-02-28T05:45:06;2.72;;;1.23;;
40907;SDS011;51055;59.436;24.778;2023-02-28T05:47:34;2.63;;;1.13;;
40907;SDS011;51055;59.436;24.778;2023-02-28T05:50:03;3.50;;;1.13;;
40907;SDS011;51055;59.436;24.778;2023-02-28T05:52:33;3.05;;;0.90;;
40907;SDS011;51055;59.436;24.778;2023-02-28T05:55:01;3.47;;;0.73;;
40907;SDS011;51055;59.436;24.778;2023-02-28T05:57:29;4.55;;;1.05;;
40907;SDS011;51055;59.436;24.778;2023-02-28T05:59:56;1.80;;;0.70;;
40907;SDS011;51055;59.436;24.778;2023-02-28T06:02:24;4.18;;;1.00;;
40907;SDS011;51055;59.436;24.778;2023-02-28T06:04:52;5.22;;;1.52;;
40907;SDS011;51055;59.436;24.778;2023-02-28T06:07:19;4.45;;;1.20;;
40907;SDS011;51055;59.436;24.778;2023-02-28T06:09:47;4.28;;;1.20;;
40907;SDS011;51055;59.436;24.778;2023-02-28T06:12:14;3.97;;;1.00;;
40907;SDS011;51055;59.436;24.778;2023-02-28T06:14:42;6.15;;;2.05;;
40907;SDS011;51055;59.436;24.778;2023-02-28T06:17:09;4.22;;;0.95;;
40907;SDS011;51055;59.436;24.778;2023-02-28T06:19:37;3.28;;;0.90;;
40907;SDS011;51055;59.436;24.778;2023-02-28T06:22:08;5.40;;;1.25;;
40907;SDS011;51055;59.436;24.778;2023-02-28T06:24:35;3.83;;;1.58;;
40907;SDS011;51055;59.436;24.778;2023-02-28T06:27:03;4.18;;;1.10;;
40907;SDS011;51055;59.436;24.778;2023-02-28T06:32:00;5.30;;;1.05;;
40907;SDS011;51055;59.436;24.778;2023-02-28T06:34:28;4.10;;;1.20;;
40907;SDS011;51055;59.436;24.778;2023-02-28T06:36:56;3.40;;;1.10;;
40907;SDS011;51055;59.436;24.778;2023-02-28T06:39:24;2.55;;;1.20;;
40907;SDS011;51055;59.436;24.778;2023-02-28T06:41:52;3.55;;;1.45;;
40907;SDS011;51055;59.436;24.778;2023-02-28T06:44:22;6.20;;;1.48;;
40907;SDS011;51055;59.436;24.778;2023-02-28T06:46:51;4.95;;;1.30;;
40907;SDS011;51055;59.436;24.778;2023-02-28T06:49:18;3.90;;;1.27;;
40907;SDS011;51055;59.436;24.778;2023-02-28T06:51:46;4.22;;;1.52;;
40907;SDS011;51055;59.436;24.778;2023-02-28T06:54:14;7.00;;;1.63;;
40907;SDS011;51055;59.436;24.778;2023-02-28T06:56:41;3.90;;;1.33;;
40907;SDS011;51055;59.436;24.778;2023-02-28T06:59:09;4.95;;;1.42;;
40907;SDS011;51055;59.436;24.778;2023-02-28T07:01:37;4.90;;;1.70;;
40907;SDS011;51055;59.436;24.778;2023-02-28T07:04:06;6.20;;;1.65;;
40907;SDS011;51055;59.436;24.778;2023-02-28T07:06:34;4.70;;;1.30;;
40907;SDS011;51055;59.436;24.778;2023-02-28T07:09:01;3.05;;;1.00;;
40907;SDS011;51055;59.436;24.778;2023-02-28T07:11:29;2.33;;;0.80;;
40907;SDS011;51055;59.436;24.778;2023-02-28T07:13:58;2.60;;;1.02;;
40907;SDS011;51055;59.436;24.778;2023-02-28T07:16:25;4.72;;;1.35;;
40907;SDS011;51055;59.436;24.778;2023-02-28T07:18:54;2.80;;;1.13;;
40907;SDS011;51055;59.436;24.778;2023-02-28T07:21:22;4.22;;;1.50;;
40907;SDS011;51055;59.436;24.778;2023-02-28T07:23:51;3.78;;;1.13;;
40907;SDS011;51055;59.436;24.778;2023-02-28T07:26:19;2.50;;;1.10;;
40907;SDS011;51055;59.436;24.778;2023-02-28T07:31:15;3.88;;;1.27;;
40907;SDS011;51055;59.436;24.778;2023-02-28T07:36:13;2.80;;;1.20;;
40907;SDS011;51055;59.436;24.778;2023-02-28T07:38:43;7.72;;;1.98;;
40907;SDS011;51055;59.436;24.778;2023-02-28T07:41:15;3.42;;;1.42;;
40907;SDS011;51055;59.436;24.778;2023-02-28T07:43:45;4.03;;;1.55;;
40907;SDS011;51055;59.436;24.778;2023-02-28T07:46:14;3.83;;;1.20;;
40907;SDS011;51055;59.436;24.778;2023-02-28T07:48:43;5.57;;;1.33;;
40907;SDS011;51055;59.436;24.778;2023-02-28T07:51:11;3.53;;;1.45;;
40907;SDS011;51055;59.436;24.778;2023-02-28T07:53:39;5.10;;;1.67;;
40907;SDS011;51055;59.436;24.778;2023-02-28T07:56:07;4.82;;;1.35;;
40907;SDS011;51055;59.436;24.778;2023-02-28T07:58:35;3.47;;;1.10;;
40907;SDS011;51055;59.436;24.778;2023-02-28T08:01:09;3.63;;;1.10;;
40907;SDS011;51055;59.436;24.778;2023-02-28T08:03:38;3.47;;;1.20;;
40907;SDS011;51055;59.436;24.778;2023-02-28T08:08:41;3.85;;;1.15;;
40907;SDS011;51055;59.436;24.778;2023-02-28T08:11:09;3.67;;;1.20;;
40907;SDS011;51055;59.436;24.778;2023-02-28T08:13:37;3.72;;;1.45;;
40907;SDS011;51055;59.436;24.778;2023-02-28T08:16:05;4.47;;;1.38;;
40907;SDS011;51055;59.436;24.778;2023-02-28T08:18:33;6.18;;;1.20;;
40907;SDS011;51055;59.436;24.778;2023-02-28T08:21:07;2.83;;;1.17;;
40907;SDS011;51055;59.436;24.778;2023-02-28T08:23:38;5.55;;;1.30;;
40907;SDS011;51055;59.436;24.778;2023-02-28T08:26:06;4.63;;;1.15;;
40907;SDS011;51055;59.436;24.778;2023-02-28T08:28:33;3.40;;;1.20;;
40907;SDS011;51055;59.436;24.778;2023-02-28T08:31:01;5.43;;;1.30;;
40907;SDS011;51055;59.436;24.778;2023-02-28T08:33:36;3.28;;;0.90;;
40907;SDS011;51055;59.436;24.778;2023-02-28T08:36:06;3.00;;;1.02;;
40907;SDS011;51055;59.436;24.778;2023-02-28T08:38:36;4.63;;;1.10;;
40907;SDS011;51055;59.436;24.778;2023-02-28T08:41:05;2.67;;;0.95;;
40907;SDS011;51055;59.436;24.778;2023-02-28T08:43:36;4.60;;;1.70;;
40907;SDS011;51055;59.436;24.778;2023-02-28T08:46:05;5.00;;;1.33;;
40907;SDS011;51055;59.436;24.778;2023-02-28T08:48:34;5.93;;;1.10;;
40907;SDS011;51055;59.436;24.778;2023-02-28T08:51:06;3.97;;;1.15;;
40907;SDS011;51055;59.436;24.778;2023-02-28T08:53:36;4.90;;;1.30;;
40907;SDS011;51055;59.436;24.778;2023-02-28T08:58:34;5.97;;;2.00;;
40907;SDS011;51055;59.436;24.778;2023-02-28T09:01:36;4.63;;;1.60;;
40907;SDS011;51055;59.436;24.778;2023-02-28T09:03:57;4.97;;;1.30;;
40907;SDS011;51055;59.436;24.778;2023-02-28T09:06:26;3.45;;;1.45;;
40907;SDS011;51055;59.436;24.778;2023-02-28T09:08:58;5.25;;;1.60;;
40907;SDS011;51055;59.436;24.778;2023-02-28T09:11:28;5.15;;;1.23;;
40907;SDS011;51055;59.436;24.778;2023-02-28T09:13:57;8.07;;;1.95;;
40907;SDS011;51055;59.436;24.778;2023-02-28T09:16:26;4.65;;;1.60;;
40907;SDS011;51055;59.436;24.778;2023-02-28T09:18:54;4.97;;;3.23;;
40907;SDS011;51055;59.436;24.778;2023-02-28T09:21:22;2.92;;;0.90;;
40907;SDS011;51055;59.436;24.778;2023-02-28T09:23:50;3.33;;;1.05;;
40907;SDS011;51055;59.436;24.778;2023-02-28T09:26:22;4.60;;;0.93;;
40907;SDS011;51055;59.436;24.778;2023-02-28T09:28:51;2.75;;;0.90;;
40907;SDS011;51055;59.436;24.778;2023-02-28T09:31:22;3.88;;;0.98;;
40907;SDS011;51055;59.436;24.778;2023-02-28T09:33:56;6.18;;;1.98;;
40907;SDS011;51055;59.436;24.778;2023-02-28T09:36:25;3.83;;;1.50;;
40907;SDS011;51055;59.436;24.778;2023-02-28T09:39:10;3.63;;;1.15;;
40907;SDS011;51055;59.436;24.778;2023-02-28T09:41:41;6.75;;;1.00;;
40907;SDS011;51055;59.436;24.778;2023-02-28T09:47:00;6.38;;;1.63;;
40907;SDS011;51055;59.436;24.778;2023-02-28T09:49:36;5.65;;;2.00;;
40907;SDS011;51055;59.436;24.778;2023-02-28T09:52:12;3.70;;;1.55;;
40907;SDS011;51055;59.436;24.778;2023-02-28T09:54:43;5.20;;;1.17;;
40907;SDS011;51055;59.436;24.778;2023-02-28T09:57:32;4.70;;;1.20;;
40907;SDS011;51055;59.436;24.778;2023-02-28T10:05:41;3.78;;;0.88;;
40907;SDS011;51055;59.436;24.778;2023-02-28T10:08:18;2.72;;;0.98;;
40907;SDS011;51055;59.436;24.778;2023-02-28T10:11:00;4.00;;;1.00;;
40907;SDS011;51055;59.436;24.778;2023-02-28T10:13:50;4.40;;;1.02;;
40907;SDS011;51055;59.436;24.778;2023-02-28T10:16:28;4.93;;;1.00;;
40907;SDS011;51055;59.436;24.778;2023-02-28T10:19:05;4.00;;;1.10;;
40907;SDS011;51055;59.436;24.778;2023-02-28T10:21:48;3.47;;;0.90;;
40907;SDS011;51055;59.436;24.778;2023-02-28T10:24:23;4.97;;;1.02;;
40907;SDS011;51055;59.436;24.778;2023-02-28T10:27:21;3.65;;;1.00;;
40907;SDS011;51055;59.436;24.778;2023-02-28T10:29:54;5.45;;;1.10;;
40907;SDS011;51055;59.436;24.778;2023-02-28T10:32:24;3.70;;;1.00;;
40907;SDS011;51055;59.436;24.778;2023-02-28T10:37:37;7.88;;;1.30;;
40907;SDS011;51055;59.436;24.778;2023-02-28T10:43:03;6.03;;;1.50;;
40907;SDS011;51055;59.436;24.778;2023-02-28T10:45:33;4.15;;;1.42;;
40907;SDS011;51055;59.436;24.778;2023-02-28T10:48:05;3.63;;;1.10;;
40907;SDS011;51055;59.436;24.778;2023-02-28T10:50:53;5.25;;;1.40;;
40907;SDS011;51055;59.436;24.778;2023-02-28T10:56:16;3.25;;;1.00;;
40907;SDS011;51055;59.436;24.778;2023-02-28T10:58:50;7.70;;;1.65;;
40907;SDS011;51055;59.436;24.778;2023-02-28T11:07:05;6.95;;;1.10;;
40907;SDS011;51055;59.436;24.778;2023-02-28T11:09:52;4.70;;;1.30;;
40907;SDS011;51055;59.436;24.778;2023-02-28T11:12:23;6.80;;;1.95;;
40907;SDS011;51055;59.436;24.778;2023-02-28T11:15:00;5.05;;;1.33;;
40907;SDS011;51055;59.436;24.778;2023-02-28T11:17:31;6.03;;;1.55;;
40907;SDS011;51055;59.436;24.778;2023-02-28T11:20:01;8.48;;;1.58;;
40907;SDS011;51055;59.436;24.778;2023-02-28T11:22:36;10.20;;;2.13;;
40907;SDS011;51055;59.436;24.778;2023-02-28T11:25:12;8.45;;;1.75;;
40907;SDS011;51055;59.436;24.778;2023-02-28T11:27:50;12.00;;;2.05;;
40907;SDS011;51055;59.436;24.778;2023-02-28T11:36:01;11.25;;;1.98;;
40907;SDS011;51055;59.436;24.778;2023-02-28T11:38:36;9.80;;;1.85;;
40907;SDS011;51055;59.436;24.778;2023-02-28T11:41:07;7.90;;;2.45;;
40907;SDS011;51055;59.436;24.778;2023-02-28T11:43:56;9.18;;;2.22;;
40907;SDS011;51055;59.436;24.778;2023-02-28T11:46:58;7.78;;;1.83;;
40907;SDS011;51055;59.436;24.778;2023-02-28T11:52:10;8.10;;;2.00;;
40907;SDS011;51055;59.436;24.778;2023-02-28T12:03:00;8.60;;;1.73;;
40907;SDS011;51055;59.436;24.778;2023-02-28T12:06:08;9.48;;;1.80;;
40907;SDS011;51055;59.436;24.778;2023-02-28T12:22:31;8.20;;;2.35;;
40907;SDS011;51055;59.436;24.778;2023-02-28T12:27:34;9.70;;;2.83;;
40907;SDS011;51055;59.436;24.778;2023-02-28T12:30:26;6.72;;;2.08;;
40907;SDS011;51055;59.436;24.778;2023-02-28T12:33:07;9.05;;;2.92;;
40907;SDS011;51055;59.436;24.778;2023-02-28T12:35:43;7.70;;;2.45;;
40907;SDS011;51055;59.436;24.778;2023-02-28T12:41:16;7.82;;;2.58;;
40907;SDS011;51055;59.436;24.778;2023-02-28T12:43:52;9.73;;;2.90;;
40907;SDS011;51055;59.436;24.778;2023-02-28T12:46:30;8.15;;;3.03;;
40907;SDS011;51055;59.436;24.778;2023-02-28T12:49:12;10.27;;;2.83;;
40907;SDS011;51055;59.436;24.778;2023-02-28T12:51:43;6.18;;;2.33;;
40907;SDS011;51055;59.436;24.778;2023-02-28T12:54:20;8.43;;;2.50;;
40907;SDS011;51055;59.436;24.778;2023-02-28T12:57:08;6.45;;;1.95;;
40907;SDS011;51055;59.436;24.778;2023-02-28T12:59:52;6.45;;;1.73;;
40907;SDS011;51055;59.436;24.778;2023-02-28T13:10:51;9.13;;;2.47;;
40907;SDS011;51055;59.436;24.778;2023-02-28T13:13:25;9.75;;;2.33;;
40907;SDS011;51055;59.436;24.778;2023-02-28T13:16:07;10.50;;;2.85;;
40907;SDS011;51055;59.436;24.778;2023-02-28T13:18:43;11.85;;;2.90;;
40907;SDS011;51055;59.436;24.778;2023-02-28T13:21:26;9.30;;;2.97;;
40907;SDS011;51055;59.436;24.778;2023-02-28T13:24:02;13.00;;;3.30;;
40907;SDS011;51055;59.436;24.778;2023-02-28T13:34:42;7.50;;;2.53;;
40907;SDS011;51055;59.436;24.778;2023-02-28T13:37:41;8.70;;;2.70;;
40907;SDS011;51055;59.436;24.778;2023-02-28T13:47:40;11.70;;;4.20;;
40907;SDS011;51055;59.436;24.778;2023-02-28T13:58:25;11.75;;;4.28;;
40907;SDS011;51055;59.436;24.778;2023-02-28T14:06:48;9.77;;;2.40;;
40907;SDS011;51055;59.436;24.778;2023-02-28T14:17:58;11.52;;;2.30;;
40907;SDS011;51055;59.436;24.778;2023-02-28T14:20:29;10.07;;;2.42;;
40907;SDS011;51055;59.436;24.778;2023-02-28T14:26:12;12.90;;;4.00;;
40907;SDS011;51055;59.436;24.778;2023-02-28T14:31:46;13.23;;;4.38;;
40907;SDS011;51055;59.436;24.778;2023-02-28T14:37:04;10.10;;;3.67;;
40907;SDS011;51055;59.436;24.778;2023-02-28T14:39:35;8.27;;;1.85;;
40907;SDS011;51055;59.436;24.778;2023-02-28T14:42:24;8.00;;;1.83;;
40907;SDS011;51055;59.436;24.778;2023-02-28T14:44:56;10.68;;;2.70;;
40907;SDS011;51055;59.436;24.778;2023-02-28T14:47:27;8.43;;;2.53;;
40907;SDS011;51055;59.436;24.778;2023-02-28T14:49:58;6.88;;;2.20;;
40907;SDS011;51055;59.436;24.778;2023-02-28T14:52:28;14.23;;;2.40;;
40907;SDS011;51055;59.436;24.778;2023-02-28T14:55:00;7.40;;;2.53;;
40907;SDS011;51055;59.436;24.778;2023-02-28T14:57:32;7.28;;;2.25;;
40907;SDS011;51055;59.436;24.778;2023-02-28T15:00:09;11.85;;;2.33;;
40907;SDS011;51055;59.436;24.778;2023-02-28T15:02:42;12.63;;;2.55;;
40907;SDS011;51055;59.436;24.778;2023-02-28T15:07:40;7.35;;;2.28;;
40907;SDS011;51055;59.436;24.778;2023-02-28T15:12:46;8.93;;;2.10;;
40907;SDS011;51055;59.436;24.778;2023-02-28T15:21:17;12.10;;;2.58;;
40907;SDS011;51055;59.436;24.778;2023-02-28T15:23:56;9.18;;;2.60;;
40907;SDS011;51055;59.436;24.778;2023-02-28T15:26:30;10.15;;;2.47;;
40907;SDS011;51055;59.436;24.778;2023-02-28T15:29:15;10.00;;;2.53;;
40907;SDS011;51055;59.436;24.778;2023-02-28T15:31:48;9.48;;;2.55;;
40907;SDS011;51055;59.436;24.778;2023-02-28T15:34:34;9.55;;;2.30;;
40907;SDS011;51055;59.436;24.778;2023-02-28T15:37:30;10.60;;;2.25;;
40907;SDS011;51055;59.436;24.778;2023-02-28T15:40:26;8.95;;;2.65;;
40907;SDS011;51055;59.436;24.778;2023-02-28T15:43:57;7.88;;;2.22;;
40907;SDS011;51055;59.436;24.778;2023-02-28T15:46:14;7.53;;;2.17;;
40907;SDS011;51055;59.436;24.778;2023-02-28T15:48:43;9.98;;;2.30;;
40907;SDS011;51055;59.436;24.778;2023-02-28T15:54:02;12.15;;;2.28;;
40907;SDS011;51055;59.436;24.778;2023-02-28T15:56:31;8.88;;;1.80;;
40907;SDS011;51055;59.436;24.778;2023-02-28T15:59:05;10.35;;;2.30;;
40907;SDS011;51055;59.436;24.778;2023-02-28T16:01:36;13.18;;;4.20;;
40907;SDS011;51055;59.436;24.778;2023-02-28T16:04:15;14.50;;;4.20;;
40907;SDS011;51055;59.436;24.778;2023-02-28T16:09:24;9.65;;;3.00;;
40907;SDS011;51055;59.436;24.778;2023-02-28T16:11:55;8.93;;;2.20;;
40907;SDS011;51055;59.436;24.778;2023-02-28T16:14:25;11.18;;;2.60;;
40907;SDS011;51055;59.436;24.778;2023-02-28T16:16:55;10.73;;;2.30;;
40907;SDS011;51055;59.436;24.778;2023-02-28T16:19:29;9.43;;;2.42;;
40907;SDS011;51055;59.436;24.778;2023-02-28T16:22:00;9.07;;;2.45;;
40907;SDS011;51055;59.436;24.778;2023-02-28T16:24:28;15.25;;;3.15;;
40907;SDS011;51055;59.436;24.778;2023-02-28T16:26:56;8.50;;;2.33;;
40907;SDS011;51055;59.436;24.778;2023-02-28T16:29:27;7.15;;;2.30;;
40907;SDS011;51055;59.436;24.778;2023-02-28T16:31:59;11.20;;;2.58;;
40907;SDS011;51055;59.436;24.778;2023-02-28T16:36:55;8.88;;;1.98;;
40907;SDS011;51055;59.436;24.778;2023-02-28T16:39:32;9.98;;;2.10;;
40907;SDS011;51055;59.436;24.778;2023-02-28T16:42:24;9.50;;;2.35;;
40907;SDS011;51055;59.436;24.778;2023-02-28T16:44:54;8.05;;;2.00;;
40907;SDS011;51055;59.436;24.778;2023-02-28T16:47:22;11.25;;;3.08;;
40907;SDS011;51055;59.436;24.778;2023-02-28T16:49:50;10.10;;;2.40;;
40907;SDS011;51055;59.436;24.778;2023-02-28T16:52:18;12.55;;;2.35;;
40907;SDS011;51055;59.436;24.778;2023-02-28T16:54:46;10.15;;;2.22;;
40907;SDS011;51055;59.436;24.778;2023-02-28T16:57:20;9.13;;;2.60;;
40907;SDS011;51055;59.436;24.778;2023-02-28T16:59:52;10.35;;;3.25;;
40907;SDS011;51055;59.436;24.778;2023-02-28T17:02:19;9.05;;;2.80;;
40907;SDS011;51055;59.436;24.778;2023-02-28T17:04:48;10.73;;;2.75;;
40907;SDS011;51055;59.436;24.778;2023-02-28T17:07:16;7.72;;;2.80;;
40907;SDS011;51055;59.436;24.778;2023-02-28T17:09:44;11.77;;;3.05;;
40907;SDS011;51055;59.436;24.778;2023-02-28T17:12:13;12.70;;;3.13;;
40907;SDS011;51055;59.436;24.778;2023-02-28T17:14:41;6.23;;;1.67;;
40907;SDS011;51055;59.436;24.778;2023-02-28T17:17:11;6.15;;;1.90;;
40907;SDS011;51055;59.436;24.778;2023-02-28T17:19:45;9.75;;;2.78;;
40907;SDS011;51055;59.436;24.778;2023-02-28T17:22:12;9.50;;;3.60;;
40907;SDS011;51055;59.436;24.778;2023-02-28T17:24:40;7.60;;;2.33;;
40907;SDS011;51055;59.436;24.778;2023-02-28T17:27:10;8.27;;;2.40;;
40907;SDS011;51055;59.436;24.778;2023-02-28T17:29:41;10.23;;;3.00;;
40907;SDS011;51055;59.436;24.778;2023-02-28T17:32:10;8.93;;;2.58;;
40907;SDS011;51055;59.436;24.778;2023-02-28T17:34:45;11.30;;;3.28;;
40907;SDS011;51055;59.436;24.778;2023-02-28T17:37:13;8.80;;;2.50;;
40907;SDS011;51055;59.436;24.778;2023-02-28T17:39:41;6.50;;;2.17;;
40907;SDS011;51055;59.436;24.778;2023-02-28T17:42:09;12.80;;;4.25;;
40907;SDS011;51055;59.436;24.778;2023-02-28T17:44:37;16.63;;;5.38;;
40907;SDS011;51055;59.436;24.778;2023-02-28T17:47:04;8.68;;;3.40;;
40907;SDS011;51055;59.436;24.778;2023-02-28T17:49:32;11.88;;;3.83;;
40907;SDS011;51055;59.436;24.778;2023-02-28T17:52:00;8.85;;;2.58;;
40907;SDS011;51055;59.436;24.778;2023-02-28T17:54:28;11.10;;;3.00;;
40907;SDS011;51055;59.436;24.778;2023-02-28T17:56:56;11.85;;;3.10;;
40907;SDS011;51055;59.436;24.778;2023-02-28T17:59:24;8.43;;;2.20;;
40907;SDS011;51055;59.436;24.778;2023-02-28T18:01:52;7.32;;;1.90;;
40907;SDS011;51055;59.436;24.778;2023-02-28T18:04:20;8.90;;;2.17;;
40907;SDS011;51055;59.436;24.778;2023-02-28T18:06:48;10.38;;;2.50;;
40907;SDS011;51055;59.436;24.778;2023-02-28T18:09:20;9.05;;;2.03;;